sensor_id;sensor_type;location;lat;lon;timestamp;temperature;humidity
9486;DHT22;4781;48.776;9.200;2023-02-04T00:00:34;7.90;99.90
9486;DHT22;4781;48.776;9.200;2023-02-04T00:03:04;7.90;99.90
9486;DHT22;4781;48.776;9.200;2023-02-04T00:05:32;7.90;99.90
9486;DHT22;4781;48.776;9.200;2023-02-04T00:08:01;7.90;99.90
9486;DHT22;4781;48.776;9.200;2023-02-04T00:10:29;7.90;99.90
9486;DHT22;4781;48.776;9.200;2023-02-04T00:12:57;7.90;99.90
9486;DHT22;4781;48.776;9.200;2023-02-04T00:15:26;7.80;99.90
9486;DHT22;4781;48.776;9.200;2023-02-04T00:17:54;7.80;99.90
9486;DHT22;4781;48.776;9.200;2023-02-04T00:20:23;7.80;99.90
9486;DHT22;4781;48.776;9.200;2023-02-04T00:22:51;7.80;99.90
9486;DHT22;4781;48.776;9.200;2023-02-04T00:25:20;7.80;99.90
9486;DHT22;4781;48.776;9.200;2023-02-04T00:27:48;7.80;99.90
9486;DHT22;4781;48.776;9.200;2023-02-04T00:30:17;7.80;99.90
9486;DHT22;4781;48.776;9.200;2023-02-04T00:32:45;7.80;99.90
9486;DHT22;4781;48.776;9.200;2023-02-04T00:35:14;7.80;99.90
9486;DHT22;4781;48.776;9.200;2023-02-04T00:37:42;7.90;99.90
9486;DHT22;4781;48.776;9.200;2023-02-04T00:40:11;7.80;99.90
9486;DHT22;4781;48.776;9.200;2023-02-04T00:42:40;7.80;99.90
9486;DHT22;4781;48.776;9.200;2023-02-04T00:45:09;7.80;99.90
9486;DHT22;4781;48.776;9.200;2023-02-04T00:47:37;7.90;99.90
9486;DHT22;4781;48.776;9.200;2023-02-04T00:50:06;7.90;99.90
9486;DHT22;4781;48.776;9.200;2023-02-04T00:52:35;7.90;99.90
9486;DHT22;4781;48.776;9.200;2023-02-04T00:55:03;7.90;99.90
9486;DHT22;4781;48.776;9.200;2023-02-04T00:57:33;7.90;99.90
9486;DHT22;4781;48.776;9.200;2023-02-04T01:00:02;7.80;99.90
9486;DHT22;4781;48.776;9.200;2023-02-04T01:02:32;7.80;99.90
9486;DHT22;4781;48.776;9.200;2023-02-04T01:05:00;7.80;99.90
9486;DHT22;4781;48.776;9.200;2023-02-04T01:07:28;7.70;99.90
9486;DHT22;4781;48.776;9.200;2023-02-04T01:09:57;7.70;99.90
9486;DHT22;4781;48.776;9.200;2023-02-04T01:12:25;7.70;99.90
9486;DHT22;4781;48.776;9.200;2023-02-04T01:14:54;7.70;99.90
9486;DHT22;4781;48.776;9.200;2023-02-04T01:17:23;7.70;99.90
9486;DHT22;4781;48.776;9.200;2023-02-04T01:19:52;7.70;99.90
9486;DHT22;4781;48.776;9.200;2023-02-04T01:22:20;7.60;99.90
9486;DHT22;4781;48.776;9.200;2023-02-04T01:24:49;7.60;99.90
9486;DHT22;4781;48.776;9.200;2023-02-04T01:27:17;7.60;99.90
9486;DHT22;4781;48.776;9.200;2023-02-04T01:29:45;7.50;99.90
9486;DHT22;4781;48.776;9.200;2023-02-04T01:32:14;7.50;99.90
9486;DHT22;4781;48.776;9.200;2023-02-04T01:34:42;7.60;99.90
9486;DHT22;4781;48.776;9.200;2023-02-04T01:37:11;7.60;99.90
9486;DHT22;4781;48.776;9.200;2023-02-04T01:39:39;7.50;99.90
9486;DHT22;4781;48.776;9.200;2023-02-04T01:42:07;7.50;99.90
9486;DHT22;4781;48.776;9.200;2023-02-04T01:44:36;7.50;99.90
9486;DHT22;4781;48.776;9.200;2023-02-04T01:47:05;7.50;99.90
9486;DHT22;4781;48.776;9.200;2023-02-04T01:49:35;7.40;99.90
9486;DHT22;4781;48.776;9.200;2023-02-04T01:52:04;7.40;99.90
9486;DHT22;4781;48.776;9.200;2023-02-04T01:54:32;7.40;99.90
9486;DHT22;4781;48.776;9.200;2023-02-04T01:57:01;7.40;99.90
9486;DHT22;4781;48.776;9.200;2023-02-04T01:59:33;7.30;99.90
9486;DHT22;4781;48.776;9.200;2023-02-04T02:02:01;7.30;99.90
9486;DHT22;4781;48.776;9.200;2023-02-04T02:04:37;7.30;99.90
9486;DHT22;4781;48.776;9.200;2023-02-04T02:07:05;7.30;99.90
9486;DHT22;4781;48.776;9.200;2023-02-04T02:09:35;7.30;99.90
9486;DHT22;4781;48.776;9.200;2023-02-04T02:12:04;7.30;99.90
9486;DHT22;4781;48.776;9.200;2023-02-04T02:14:32;7.20;99.90
9486;DHT22;4781;48.776;9.200;2023-02-04T02:17:01;7.20;99.90
9486;DHT22;4781;48.776;9.200;2023-02-04T02:19:32;7.20;99.90
9486;DHT22;4781;48.776;9.200;2023-02-04T02:22:05;7.20;99.90
9486;DHT22;4781;48.776;9.200;2023-02-04T02:24:41;7.20;99.90
9486;DHT22;4781;48.776;9.200;2023-02-04T02:27:11;7.20;99.90
9486;DHT22;4781;48.776;9.200;2023-02-04T02:29:41;7.10;99.90
9486;DHT22;4781;48.776;9.200;2023-02-04T02:32:11;7.10;99.90
9486;DHT22;4781;48.776;9.200;2023-02-04T02:34:42;7.10;99.90
9486;DHT22;4781;48.776;9.200;2023-02-04T02:37:11;7.10;99.90
9486;DHT22;4781;48.776;9.200;2023-02-04T02:39:42;7.00;99.90
9486;DHT22;4781;48.776;9.200;2023-02-04T02:42:14;7.00;99.90
9486;DHT22;4781;48.776;9.200;2023-02-04T02:44:45;7.00;99.90
9486;DHT22;4781;48.776;9.200;2023-02-04T02:47:19;7.00;99.90
9486;DHT22;4781;48.776;9.200;2023-02-04T02:49:50;7.00;99.90
9486;DHT22;4781;48.776;9.200;2023-02-04T02:52:19;6.90;99.90
9486;DHT22;4781;48.776;9.200;2023-02-04T02:54:48;6.90;99.90
9486;DHT22;4781;48.776;9.200;2023-02-04T02:57:19;6.80;99.90
9486;DHT22;4781;48.776;9.200;2023-02-04T02:59:49;6.80;99.90
9486;DHT22;4781;48.776;9.200;2023-02-04T03:02:19;6.80;99.90
9486;DHT22;4781;48.776;9.200;2023-02-04T03:04:52;6.80;99.90
9486;DHT22;4781;48.776;9.200;2023-02-04T03:07:23;6.80;99.90
9486;DHT22;4781;48.776;9.200;2023-02-04T03:09:51;6.70;99.90
9486;DHT22;4781;48.776;9.200;2023-02-04T03:12:19;6.70;99.90
9486;DHT22;4781;48.776;9.200;2023-02-04T03:14:48;6.70;99.90
9486;DHT22;4781;48.776;9.200;2023-02-04T03:17:17;6.70;99.90
9486;DHT22;4781;48.776;9.200;2023-02-04T03:19:45;6.70;99.90
9486;DHT22;4781;48.776;9.200;2023-02-04T03:22:14;6.70;99.90
9486;DHT22;4781;48.776;9.200;2023-02-04T03:24:43;6.70;99.90
9486;DHT22;4781;48.776;9.200;2023-02-04T03:27:11;6.70;99.90
9486;DHT22;4781;48.776;9.200;2023-02-04T03:29:45;6.70;99.90
9486;DHT22;4781;48.776;9.200;2023-02-04T03:32:13;6.60;99.90
9486;DHT22;4781;48.776;9.200;2023-02-04T03:34:42;6.60;99.90
9486;DHT22;4781;48.776;9.200;2023-02-04T03:37:10;6.70;99.90
9486;DHT22;4781;48.776;9.200;2023-02-04T03:39:38;6.70;99.90
9486;DHT22;4781;48.776;9.200;2023-02-04T03:42:07;6.70;99.90
9486;DHT22;4781;48.776;9.200;2023-02-04T03:44:36;6.60;99.90
9486;DHT22;4781;48.776;9.200;2023-02-04T03:47:04;6.60;99.90
9486;DHT22;4781;48.776;9.200;2023-02-04T03:49:33;6.60;99.90
9486;DHT22;4781;48.776;9.200;2023-02-04T03:52:02;6.60;99.90
9486;DHT22;4781;48.776;9.200;2023-02-04T03:54:31;6.60;99.90
9486;DHT22;4781;48.776;9.200;2023-02-04T03:56:59;6.60;99.90
9486;DHT22;4781;48.776;9.200;2023-02-04T03:59:28;6.60;99.90
9486;DHT22;4781;48.776;9.200;2023-02-04T04:01:56;6.60;99.90
9486;DHT22;4781;48.776;9.200;2023-02-04T04:04:24;6.60;99.90
9486;DHT22;4781;48.776;9.200;2023-02-04T04:06:53;6.50;99.90
9486;DHT22;4781;48.776;9.200;2023-02-04T04:09:21;6.50;99.90
9486;DHT22;4781;48.776;9.200;2023-02-04T04:11:50;6.50;99.90
9486;DHT22;4781;48.776;9.200;2023-02-04T04:14:18;6.50;99.90
9486;DHT22;4781;48.776;9.200;2023-02-04T04:16:46;6.50;99.90
9486;DHT22;4781;48.776;9.200;2023-02-04T04:19:15;6.50;99.90
9486;DHT22;4781;48.776;9.200;2023-02-04T04:21:43;6.50;99.90
9486;DHT22;4781;48.776;9.200;2023-02-04T04:24:11;6.50;99.90
9486;DHT22;4781;48.776;9.200;2023-02-04T04:26:40;6.50;99.90
9486;DHT22;4781;48.776;9.200;2023-02-04T04:29:08;6.40;99.90
9486;DHT22;4781;48.776;9.200;2023-02-04T04:31:36;6.50;99.90
9486;DHT22;4781;48.776;9.200;2023-02-04T04:34:05;6.50;99.90
9486;DHT22;4781;48.776;9.200;2023-02-04T04:36:33;6.50;99.90
9486;DHT22;4781;48.776;9.200;2023-02-04T04:39:02;6.50;99.90
9486;DHT22;4781;48.776;9.200;2023-02-04T04:41:30;6.60;99.90
9486;DHT22;4781;48.776;9.200;2023-02-04T04:43:59;6.50;99.90
9486;DHT22;4781;48.776;9.200;2023-02-04T04:46:27;6.50;99.90
9486;DHT22;4781;48.776;9.200;2023-02-04T04:48:55;6.50;99.90
9486;DHT22;4781;48.776;9.200;2023-02-04T04:51:24;6.50;99.90
9486;DHT22;4781;48.776;9.200;2023-02-04T04:53:52;6.50;99.90
9486;DHT22;4781;48.776;9.200;2023-02-04T04:56:21;6.50;99.90
9486;DHT22;4781;48.776;9.200;2023-02-04T04:58:49;6.50;99.90
9486;DHT22;4781;48.776;9.200;2023-02-04T05:01:17;6.50;99.90
9486;DHT22;4781;48.776;9.200;2023-02-04T05:03:48;6.50;99.90
9486;DHT22;4781;48.776;9.200;2023-02-04T05:06:16;6.50;99.90
9486;DHT22;4781;48.776;9.200;2023-02-04T05:08:46;6.50;99.90
9486;DHT22;4781;48.776;9.200;2023-02-04T05:11:15;6.50;99.90
9486;DHT22;4781;48.776;9.200;2023-02-04T05:13:43;6.50;99.90
9486;DHT22;4781;48.776;9.200;2023-02-04T05:16:12;6.50;99.90
9486;DHT22;4781;48.776;9.200;2023-02-04T05:18:41;6.50;99.90
9486;DHT22;4781;48.776;9.200;2023-02-04T05:21:10;6.50;99.90
9486;DHT22;4781;48.776;9.200;2023-02-04T05:23:38;6.50;99.90
9486;DHT22;4781;48.776;9.200;2023-02-04T05:26:06;6.50;99.90
9486;DHT22;4781;48.776;9.200;2023-02-04T05:28:35;6.40;99.90
9486;DHT22;4781;48.776;9.200;2023-02-04T05:31:03;6.40;99.90
9486;DHT22;4781;48.776;9.200;2023-02-04T05:33:32;6.40;99.90
9486;DHT22;4781;48.776;9.200;2023-02-04T05:36:00;6.40;99.90
9486;DHT22;4781;48.776;9.200;2023-02-04T05:38:28;6.40;99.90
9486;DHT22;4781;48.776;9.200;2023-02-04T05:40:57;6.40;99.90
9486;DHT22;4781;48.776;9.200;2023-02-04T05:43:25;6.30;99.90
9486;DHT22;4781;48.776;9.200;2023-02-04T05:45:53;6.30;99.90
9486;DHT22;4781;48.776;9.200;2023-02-04T05:48:23;6.30;99.90
9486;DHT22;4781;48.776;9.200;2023-02-04T05:50:51;6.30;99.90
9486;DHT22;4781;48.776;9.200;2023-02-04T05:53:19;6.30;99.90
9486;DHT22;4781;48.776;9.200;2023-02-04T05:55:48;6.30;99.90
9486;DHT22;4781;48.776;9.200;2023-02-04T05:58:16;6.30;99.90
9486;DHT22;4781;48.776;9.200;2023-02-04T06:00:45;6.30;99.90
9486;DHT22;4781;48.776;9.200;2023-02-04T06:03:13;6.20;99.90
9486;DHT22;4781;48.776;9.200;2023-02-04T06:05:41;6.20;99.90
9486;DHT22;4781;48.776;9.200;2023-02-04T06:08:10;6.20;99.90
9486;DHT22;4781;48.776;9.200;2023-02-04T06:10:40;6.20;99.90
9486;DHT22;4781;48.776;9.200;2023-02-04T06:13:08;6.20;99.90
9486;DHT22;4781;48.776;9.200;2023-02-04T06:15:37;6.20;99.90
9486;DHT22;4781;48.776;9.200;2023-02-04T06:18:05;6.20;99.90
9486;DHT22;4781;48.776;9.200;2023-02-04T06:20:34;6.20;99.90
9486;DHT22;4781;48.776;9.200;2023-02-04T06:23:02;6.20;99.90
9486;DHT22;4781;48.776;9.200;2023-02-04T06:25:30;6.20;99.90
9486;DHT22;4781;48.776;9.200;2023-02-04T06:27:59;6.10;99.90
9486;DHT22;4781;48.776;9.200;2023-02-04T06:30:27;6.10;99.90
9486;DHT22;4781;48.776;9.200;2023-02-04T06:32:56;6.10;99.90
9486;DHT22;4781;48.776;9.200;2023-02-04T06:35:24;6.10;99.90
9486;DHT22;4781;48.776;9.200;2023-02-04T06:37:52;6.10;99.90
9486;DHT22;4781;48.776;9.200;2023-02-04T06:40:21;6.10;99.90
9486;DHT22;4781;48.776;9.200;2023-02-04T06:42:49;6.10;99.90
9486;DHT22;4781;48.776;9.200;2023-02-04T06:45:17;6.10;99.90
9486;DHT22;4781;48.776;9.200;2023-02-04T06:47:46;6.10;99.90
9486;DHT22;4781;48.776;9.200;2023-02-04T06:50:14;6.00;99.90
9486;DHT22;4781;48.776;9.200;2023-02-04T06:52:46;6.10;99.90
9486;DHT22;4781;48.776;9.200;2023-02-04T06:55:15;6.00;99.90
9486;DHT22;4781;48.776;9.200;2023-02-04T06:57:44;6.00;99.90
9486;DHT22;4781;48.776;9.200;2023-02-04T07:00:12;6.00;99.90
9486;DHT22;4781;48.776;9.200;2023-02-04T07:02:41;6.00;99.90
9486;DHT22;4781;48.776;9.200;2023-02-04T07:05:11;6.00;99.90
9486;DHT22;4781;48.776;9.200;2023-02-04T07:07:40;6.00;99.90
9486;DHT22;4781;48.776;9.200;2023-02-04T07:10:08;6.00;99.90
9486;DHT22;4781;48.776;9.200;2023-02-04T07:12:37;6.00;99.90
9486;DHT22;4781;48.776;9.200;2023-02-04T07:15:05;6.00;99.90
9486;DHT22;4781;48.776;9.200;2023-02-04T07:17:34;6.00;99.90
9486;DHT22;4781;48.776;9.200;2023-02-04T07:20:03;6.00;99.90
9486;DHT22;4781;48.776;9.200;2023-02-04T07:22:31;6.00;99.90
9486;DHT22;4781;48.776;9.200;2023-02-04T07:24:59;6.00;99.90
9486;DHT22;4781;48.776;9.200;2023-02-04T07:27:28;6.00;99.90
9486;DHT22;4781;48.776;9.200;2023-02-04T07:29:56;6.00;99.90
9486;DHT22;4781;48.776;9.200;2023-02-04T07:32:24;6.00;99.90
9486;DHT22;4781;48.776;9.200;2023-02-04T07:34:54;6.00;99.90
9486;DHT22;4781;48.776;9.200;2023-02-04T07:37:23;6.00;99.90
9486;DHT22;4781;48.776;9.200;2023-02-04T07:39:51;5.90;99.90
9486;DHT22;4781;48.776;9.200;2023-02-04T07:42:20;6.00;99.90
9486;DHT22;4781;48.776;9.200;2023-02-04T07:44:48;6.00;99.90
9486;DHT22;4781;48.776;9.200;2023-02-04T07:47:16;6.00;99.90
9486;DHT22;4781;48.776;9.200;2023-02-04T07:49:45;6.00;99.90
9486;DHT22;4781;48.776;9.200;2023-02-04T07:52:13;6.00;99.90
9486;DHT22;4781;48.776;9.200;2023-02-04T07:54:41;6.00;99.90
9486;DHT22;4781;48.776;9.200;2023-02-04T07:57:10;6.00;99.90
9486;DHT22;4781;48.776;9.200;2023-02-04T07:59:38;6.00;99.90
9486;DHT22;4781;48.776;9.200;2023-02-04T08:02:06;6.00;99.90
9486;DHT22;4781;48.776;9.200;2023-02-04T08:04:36;6.00;99.90
9486;DHT22;4781;48.776;9.200;2023-02-04T08:07:05;6.00;99.90
9486;DHT22;4781;48.776;9.200;2023-02-04T08:09:34;6.00;99.90
9486;DHT22;4781;48.776;9.200;2023-02-04T08:12:02;6.00;99.90
9486;DHT22;4781;48.776;9.200;2023-02-04T08:14:31;6.00;99.90
9486;DHT22;4781;48.776;9.200;2023-02-04T08:17:00;6.00;99.90
9486;DHT22;4781;48.776;9.200;2023-02-04T08:19:28;6.00;99.90
9486;DHT22;4781;48.776;9.200;2023-02-04T08:21:56;6.00;99.90
9486;DHT22;4781;48.776;9.200;2023-02-04T08:24:25;6.10;99.90
9486;DHT22;4781;48.776;9.200;2023-02-04T08:26:53;6.10;99.90
9486;DHT22;4781;48.776;9.200;2023-02-04T08:29:21;6.10;99.90
9486;DHT22;4781;48.776;9.200;2023-02-04T08:32:10;6.10;99.90
9486;DHT22;4781;48.776;9.200;2023-02-04T08:34:39;6.10;99.90
9486;DHT22;4781;48.776;9.200;2023-02-04T08:37:07;6.10;99.90
9486;DHT22;4781;48.776;9.200;2023-02-04T08:39:36;6.10;99.90
9486;DHT22;4781;48.776;9.200;2023-02-04T08:42:05;6.10;99.90
9486;DHT22;4781;48.776;9.200;2023-02-04T08:44:34;6.10;99.90
9486;DHT22;4781;48.776;9.200;2023-02-04T08:47:02;6.10;99.90
9486;DHT22;4781;48.776;9.200;2023-02-04T08:49:30;6.10;99.90
9486;DHT22;4781;48.776;9.200;2023-02-04T08:51:59;6.20;99.90
9486;DHT22;4781;48.776;9.200;2023-02-04T08:54:28;6.20;99.90
9486;DHT22;4781;48.776;9.200;2023-02-04T08:56:57;6.20;99.90
9486;DHT22;4781;48.776;9.200;2023-02-04T08:59:25;6.20;99.90
9486;DHT22;4781;48.776;9.200;2023-02-04T09:01:54;6.20;99.90
9486;DHT22;4781;48.776;9.200;2023-02-04T09:04:23;6.20;99.90
9486;DHT22;4781;48.776;9.200;2023-02-04T09:06:51;6.20;99.90
9486;DHT22;4781;48.776;9.200;2023-02-04T09:09:20;6.30;99.90
9486;DHT22;4781;48.776;9.200;2023-02-04T09:11:48;6.30;99.90
9486;DHT22;4781;48.776;9.200;2023-02-04T09:14:16;6.40;99.90
9486;DHT22;4781;48.776;9.200;2023-02-04T09:16:45;6.40;99.90
9486;DHT22;4781;48.776;9.200;2023-02-04T09:19:15;6.50;99.90
9486;DHT22;4781;48.776;9.200;2023-02-04T09:21:45;6.60;99.90
9486;DHT22;4781;48.776;9.200;2023-02-04T09:24:14;6.60;99.90
9486;DHT22;4781;48.776;9.200;2023-02-04T09:26:42;6.70;99.90
9486;DHT22;4781;48.776;9.200;2023-02-04T09:29:10;6.90;99.90
9486;DHT22;4781;48.776;9.200;2023-02-04T09:31:39;7.10;99.90
9486;DHT22;4781;48.776;9.200;2023-02-04T09:34:07;7.20;99.90
9486;DHT22;4781;48.776;9.200;2023-02-04T09:36:35;7.40;99.90
9486;DHT22;4781;48.776;9.200;2023-02-04T09:39:05;7.50;99.90
9486;DHT22;4781;48.776;9.200;2023-02-04T09:41:39;7.50;99.90
9486;DHT22;4781;48.776;9.200;2023-02-04T09:44:16;7.60;99.90
9486;DHT22;4781;48.776;9.200;2023-02-04T09:46:48;7.60;99.90
9486;DHT22;4781;48.776;9.200;2023-02-04T09:49:19;7.70;99.90
9486;DHT22;4781;48.776;9.200;2023-02-04T09:51:48;7.90;99.90
9486;DHT22;4781;48.776;9.200;2023-02-04T09:54:18;8.10;99.90
9486;DHT22;4781;48.776;9.200;2023-02-04T09:56:48;8.30;99.90
9486;DHT22;4781;48.776;9.200;2023-02-04T09:59:20;8.40;99.90
9486;DHT22;4781;48.776;9.200;2023-02-04T10:04:40;8.70;99.90
9486;DHT22;4781;48.776;9.200;2023-02-04T10:07:11;8.70;99.90
9486;DHT22;4781;48.776;9.200;2023-02-04T10:09:40;8.60;99.90
9486;DHT22;4781;48.776;9.200;2023-02-04T10:12:08;8.60;99.90
9486;DHT22;4781;48.776;9.200;2023-02-04T10:14:37;8.50;99.90
9486;DHT22;4781;48.776;9.200;2023-02-04T10:17:07;8.50;99.90
9486;DHT22;4781;48.776;9.200;2023-02-04T10:19:37;8.50;99.90
9486;DHT22;4781;48.776;9.200;2023-02-04T10:22:14;8.40;99.90
9486;DHT22;4781;48.776;9.200;2023-02-04T10:25:00;8.30;99.90
9486;DHT22;4781;48.776;9.200;2023-02-04T10:27:28;8.30;99.90
9486;DHT22;4781;48.776;9.200;2023-02-04T10:29:57;8.30;99.90
9486;DHT22;4781;48.776;9.200;2023-02-04T10:32:29;8.20;99.90
9486;DHT22;4781;48.776;9.200;2023-02-04T10:35:00;8.20;99.90
9486;DHT22;4781;48.776;9.200;2023-02-04T10:37:29;8.20;99.90
9486;DHT22;4781;48.776;9.200;2023-02-04T10:39:57;8.10;99.90
9486;DHT22;4781;48.776;9.200;2023-02-04T10:42:28;8.10;99.90
9486;DHT22;4781;48.776;9.200;2023-02-04T10:44:57;8.20;99.90
9486;DHT22;4781;48.776;9.200;2023-02-04T10:47:28;8.10;99.90
9486;DHT22;4781;48.776;9.200;2023-02-04T10:50:16;8.10;99.90
9486;DHT22;4781;48.776;9.200;2023-02-04T10:52:51;8.10;99.90
9486;DHT22;4781;48.776;9.200;2023-02-04T10:55:23;8.10;99.90
9486;DHT22;4781;48.776;9.200;2023-02-04T10:57:52;8.10;99.90
9486;DHT22;4781;48.776;9.200;2023-02-04T11:00:23;8.10;99.90
9486;DHT22;4781;48.776;9.200;2023-02-04T11:03:03;8.20;99.90
9486;DHT22;4781;48.776;9.200;2023-02-04T11:05:55;8.40;99.90
9486;DHT22;4781;48.776;9.200;2023-02-04T11:08:31;8.60;99.90
9486;DHT22;4781;48.776;9.200;2023-02-04T11:11:02;9.10;99.90
9486;DHT22;4781;48.776;9.200;2023-02-04T11:18:59;10.20;99.90
9486;DHT22;4781;48.776;9.200;2023-02-04T11:26:46;9.50;99.90
9486;DHT22;4781;48.776;9.200;2023-02-04T11:29:27;9.40;99.90
9486;DHT22;4781;48.776;9.200;2023-02-04T11:35:19;9.20;99.90
9486;DHT22;4781;48.776;9.200;2023-02-04T11:37:42;9.10;99.90
9486;DHT22;4781;48.776;9.200;2023-02-04T11:43:07;8.80;99.90
9486;DHT22;4781;48.776;9.200;2023-02-04T11:45:37;8.90;99.90
9486;DHT22;4781;48.776;9.200;2023-02-04T11:48:16;8.90;99.90
9486;DHT22;4781;48.776;9.200;2023-02-04T11:50:57;8.80;99.90
9486;DHT22;4781;48.776;9.200;2023-02-04T11:53:31;8.70;99.90
9486;DHT22;4781;48.776;9.200;2023-02-04T11:56:00;8.60;99.90
9486;DHT22;4781;48.776;9.200;2023-02-04T11:58:30;8.60;99.90
9486;DHT22;4781;48.776;9.200;2023-02-04T12:00:58;8.60;99.90
9486;DHT22;4781;48.776;9.200;2023-02-04T12:03:31;8.60;99.90
9486;DHT22;4781;48.776;9.200;2023-02-04T12:06:00;8.50;99.90
9486;DHT22;4781;48.776;9.200;2023-02-04T12:08:33;8.60;99.90
9486;DHT22;4781;48.776;9.200;2023-02-04T12:11:11;8.60;99.90
9486;DHT22;4781;48.776;9.200;2023-02-04T12:13:49;8.60;99.90
9486;DHT22;4781;48.776;9.200;2023-02-04T12:16:20;8.70;99.90
9486;DHT22;4781;48.776;9.200;2023-02-04T12:18:49;8.70;99.90
9486;DHT22;4781;48.776;9.200;2023-02-04T12:21:17;8.70;99.90
9486;DHT22;4781;48.776;9.200;2023-02-04T12:23:46;8.70;99.90
9486;DHT22;4781;48.776;9.200;2023-02-04T12:26:15;8.70;99.90
9486;DHT22;4781;48.776;9.200;2023-02-04T12:28:43;8.70;99.90
9486;DHT22;4781;48.776;9.200;2023-02-04T12:31:12;8.80;99.90
9486;DHT22;4781;48.776;9.200;2023-02-04T12:33:40;8.80;99.90
9486;DHT22;4781;48.776;9.200;2023-02-04T12:36:09;8.80;99.90
9486;DHT22;4781;48.776;9.200;2023-02-04T12:38:37;8.80;99.90
9486;DHT22;4781;48.776;9.200;2023-02-04T12:41:06;8.70;99.90
9486;DHT22;4781;48.776;9.200;2023-02-04T12:43:35;8.70;99.90
9486;DHT22;4781;48.776;9.200;2023-02-04T12:46:03;8.70;99.90
9486;DHT22;4781;48.776;9.200;2023-02-04T12:48:32;8.60;99.90
9486;DHT22;4781;48.776;9.200;2023-02-04T12:51:00;8.60;99.90
9486;DHT22;4781;48.776;9.200;2023-02-04T12:53:29;8.60;99.90
9486;DHT22;4781;48.776;9.200;2023-02-04T12:55:57;8.60;99.90
9486;DHT22;4781;48.776;9.200;2023-02-04T12:58:25;8.60;99.90
9486;DHT22;4781;48.776;9.200;2023-02-04T13:00:54;8.40;99.90
9486;DHT22;4781;48.776;9.200;2023-02-04T13:03:22;8.40;99.90
9486;DHT22;4781;48.776;9.200;2023-02-04T13:05:51;8.40;99.90
9486;DHT22;4781;48.776;9.200;2023-02-04T13:08:20;8.30;99.90
9486;DHT22;4781;48.776;9.200;2023-02-04T13:10:48;8.30;99.90
9486;DHT22;4781;48.776;9.200;2023-02-04T13:13:18;8.20;99.90
9486;DHT22;4781;48.776;9.200;2023-02-04T13:15:47;8.10;99.90
9486;DHT22;4781;48.776;9.200;2023-02-04T13:18:15;8.10;99.90
9486;DHT22;4781;48.776;9.200;2023-02-04T13:20:44;8.10;99.90
9486;DHT22;4781;48.776;9.200;2023-02-04T13:23:12;8.10;99.90
9486;DHT22;4781;48.776;9.200;2023-02-04T13:25:41;8.10;99.90
9486;DHT22;4781;48.776;9.200;2023-02-04T13:28:10;8.10;99.90
9486;DHT22;4781;48.776;9.200;2023-02-04T13:30:39;8.10;99.90
9486;DHT22;4781;48.776;9.200;2023-02-04T13:33:07;8.00;99.90
9486;DHT22;4781;48.776;9.200;2023-02-04T13:35:36;8.10;99.90
9486;DHT22;4781;48.776;9.200;2023-02-04T13:38:04;8.10;99.90
9486;DHT22;4781;48.776;9.200;2023-02-04T13:40:33;8.10;99.90
9486;DHT22;4781;48.776;9.200;2023-02-04T13:43:01;8.10;99.90
9486;DHT22;4781;48.776;9.200;2023-02-04T13:45:29;8.10;99.90
9486;DHT22;4781;48.776;9.200;2023-02-04T13:47:58;8.10;99.90
9486;DHT22;4781;48.776;9.200;2023-02-04T13:50:26;8.20;99.90
9486;DHT22;4781;48.776;9.200;2023-02-04T13:52:55;8.20;99.90
9486;DHT22;4781;48.776;9.200;2023-02-04T13:55:23;8.20;99.90
9486;DHT22;4781;48.776;9.200;2023-02-04T13:57:51;8.10;99.90
9486;DHT22;4781;48.776;9.200;2023-02-04T14:00:20;8.10;99.90
9486;DHT22;4781;48.776;9.200;2023-02-04T14:02:48;8.00;99.90
9486;DHT22;4781;48.776;9.200;2023-02-04T14:05:17;7.90;99.90
9486;DHT22;4781;48.776;9.200;2023-02-04T14:07:45;7.90;99.90
9486;DHT22;4781;48.776;9.200;2023-02-04T14:10:15;8.00;99.90
9486;DHT22;4781;48.776;9.200;2023-02-04T14:12:44;7.90;99.90
9486;DHT22;4781;48.776;9.200;2023-02-04T14:15:12;7.90;99.90
9486;DHT22;4781;48.776;9.200;2023-02-04T14:17:41;7.90;99.90
9486;DHT22;4781;48.776;9.200;2023-02-04T14:20:09;7.90;99.90
9486;DHT22;4781;48.776;9.200;2023-02-04T14:22:38;7.80;99.90
9486;DHT22;4781;48.776;9.200;2023-02-04T14:25:07;7.80;99.90
9486;DHT22;4781;48.776;9.200;2023-02-04T14:27:35;7.70;99.90
9486;DHT22;4781;48.776;9.200;2023-02-04T14:30:07;7.70;99.90
9486;DHT22;4781;48.776;9.200;2023-02-04T14:32:40;7.70;99.90
9486;DHT22;4781;48.776;9.200;2023-02-04T14:35:09;7.70;99.90
9486;DHT22;4781;48.776;9.200;2023-02-04T14:37:38;7.60;99.90
9486;DHT22;4781;48.776;9.200;2023-02-04T14:40:08;7.60;99.90
9486;DHT22;4781;48.776;9.200;2023-02-04T14:42:37;7.60;99.90
9486;DHT22;4781;48.776;9.200;2023-02-04T14:45:06;7.60;99.90
9486;DHT22;4781;48.776;9.200;2023-02-04T14:47:37;7.60;99.90
9486;DHT22;4781;48.776;9.200;2023-02-04T14:50:08;7.60;99.90
9486;DHT22;4781;48.776;9.200;2023-02-04T14:52:37;7.60;99.90
9486;DHT22;4781;48.776;9.200;2023-02-04T14:55:06;7.60;99.90
9486;DHT22;4781;48.776;9.200;2023-02-04T14:57:39;7.60;99.90
9486;DHT22;4781;48.776;9.200;2023-02-04T15:00:08;7.60;99.90
9486;DHT22;4781;48.776;9.200;2023-02-04T15:02:37;7.60;99.90
9486;DHT22;4781;48.776;9.200;2023-02-04T15:05:06;7.50;99.90
9486;DHT22;4781;48.776;9.200;2023-02-04T15:07:35;7.60;99.90
9486;DHT22;4781;48.776;9.200;2023-02-04T15:10:05;7.60;99.90
9486;DHT22;4781;48.776;9.200;2023-02-04T15:12:34;7.60;99.90
9486;DHT22;4781;48.776;9.200;2023-02-04T15:15:03;7.60;99.90
9486;DHT22;4781;48.776;9.200;2023-02-04T15:17:32;7.60;99.90
9486;DHT22;4781;48.776;9.200;2023-02-04T15:20:00;7.60;99.90
9486;DHT22;4781;48.776;9.200;2023-02-04T15:22:29;7.60;99.90
9486;DHT22;4781;48.776;9.200;2023-02-04T15:24:57;7.60;99.90
9486;DHT22;4781;48.776;9.200;2023-02-04T15:27:26;7.50;99.90
9486;DHT22;4781;48.776;9.200;2023-02-04T15:29:55;7.50;99.90
9486;DHT22;4781;48.776;9.200;2023-02-04T15:32:23;7.40;99.90
9486;DHT22;4781;48.776;9.200;2023-02-04T15:34:52;7.40;99.90
9486;DHT22;4781;48.776;9.200;2023-02-04T15:37:20;7.40;99.90
9486;DHT22;4781;48.776;9.200;2023-02-04T15:39:48;7.30;99.90
9486;DHT22;4781;48.776;9.200;2023-02-04T15:42:17;7.30;99.90
9486;DHT22;4781;48.776;9.200;2023-02-04T15:44:45;7.20;99.90
9486;DHT22;4781;48.776;9.200;2023-02-04T15:47:14;7.20;99.90
9486;DHT22;4781;48.776;9.200;2023-02-04T15:49:42;7.10;99.90
9486;DHT22;4781;48.776;9.200;2023-02-04T15:52:10;7.10;99.90
9486;DHT22;4781;48.776;9.200;2023-02-04T15:54:39;7.00;99.90
9486;DHT22;4781;48.776;9.200;2023-02-04T15:57:07;7.00;99.90
9486;DHT22;4781;48.776;9.200;2023-02-04T15:59:35;7.00;99.90
9486;DHT22;4781;48.776;9.200;2023-02-04T16:02:04;6.90;99.90
9486;DHT22;4781;48.776;9.200;2023-02-04T16:04:32;6.90;99.90
9486;DHT22;4781;48.776;9.200;2023-02-04T16:07:01;6.90;99.90
9486;DHT22;4781;48.776;9.200;2023-02-04T16:09:31;6.90;99.90
9486;DHT22;4781;48.776;9.200;2023-02-04T16:12:00;6.80;99.90
9486;DHT22;4781;48.776;9.200;2023-02-04T16:14:28;6.80;99.90
9486;DHT22;4781;48.776;9.200;2023-02-04T16:16:57;6.80;99.90
9486;DHT22;4781;48.776;9.200;2023-02-04T16:19:27;6.70;99.90
9486;DHT22;4781;48.776;9.200;2023-02-04T16:21:59;6.70;99.90
9486;DHT22;4781;48.776;9.200;2023-02-04T16:24:25;6.70;99.90
9486;DHT22;4781;48.776;9.200;2023-02-04T16:26:54;6.70;99.90
9486;DHT22;4781;48.776;9.200;2023-02-04T16:29:22;6.60;99.90
9486;DHT22;4781;48.776;9.200;2023-02-04T16:31:50;6.60;99.90
9486;DHT22;4781;48.776;9.200;2023-02-04T16:34:19;6.60;99.90
9486;DHT22;4781;48.776;9.200;2023-02-04T16:36:47;6.60;99.90
9486;DHT22;4781;48.776;9.200;2023-02-04T16:39:16;6.60;99.90
9486;DHT22;4781;48.776;9.200;2023-02-04T16:41:44;6.60;99.90
9486;DHT22;4781;48.776;9.200;2023-02-04T16:44:13;6.60;99.90
9486;DHT22;4781;48.776;9.200;2023-02-04T16:46:41;6.50;99.90
9486;DHT22;4781;48.776;9.200;2023-02-04T16:49:09;6.40;99.90